Boswell, Canada
Current Conditions -  °F | °C
As of 4:00 AM on Saturday 20 Dec 2014 (Local Time) from CYXC Reporting Station
Broken Clouds Broken Clouds  
Wind Chill: 27°   Ceiling: 22000
Heat Index: 36°   Visibility: 20mi
Dew Point: 27°   Wind: 14mph
Humidity: 70%   Direction: 190°S
Pressure: 29.9"   Gusts: NA
Location:  49.47°N, 116.77°W
Report Text: CYXC 201200Z 19012KT 20SM SCT060 BKN220 02/M03 A2990 RMK SC4CI2 SLP154
Loading
Personal Weather Stations






























Interactive Weather Map New forecast layout! Learn more

10-Day Weather Forecast

Advertisements
Track Severe Weather on mobile